메인 페이지
METAR-TAF:

METAR-TAF

공항 :

인디애나폴리스 국제공항

인디애나폴리스, 인디애나, 미국

위도: 39-43-30N, 경도: 086-16-55W, 고도: 243m

현재 날씨관측

예보는 27분 전, 21:54시(UTC)에 발표되었습니다.
북서7kt
온도 -10°C
습도 56%
기압 1026 hPa
시정: 16.1km
고도 4500ft 상공 구름 보통
고도 18000ft 상공 구름 보통
고도 25000ft 상공 구름 많음

METAR: KIND 202154Z 32007KT 10SM SCT045 SCT180 BKN250 M10/M17 A3030 RMK AO2 SLP278 T11001172 $

시각: 17:21 (22:21 UTC)

예보

예보는 5 시간 0분 전, 17:21시(UTC)에 발표되었습니다.
예보 대상 시간: 20일 18시부터 21일 24시까지 (UTC)
10kt
시정: 10km
고도 4000ft 상공 구름 많음
20일 2100시부터 (UTC)
북서10kt
시정: 10km
고도 10000ft 상공 구름 많음
21일 0600시부터 (UTC)
여러 방향의 바람 4kt
시정: 10km
고도 9000ft 상공 구름 보통

TAF: KIND 201721Z 2018/2124 35010KT P6SM BKN040 FM202100 32010KT P6SM BKN100 FM210600 VRB04KT P6SM SCT090

4,000개 이상의 공항 관측 자료 및 예보 (METAR 및 TAF 보고).

지도상에서 검색 가능한 기상관측소가 노란 점과 빨간 점으로 표시되어 있습니다.

기상관측소 명을 보려면 표시 위로 마우스를 이동하세요.

날씨 관측과 예보를 보려면 클릭하세요.

지도 변경 : 확대하려면 엑스 표시가 있는 녹색 버튼, 축소하려면 빼기 표시가 있는 녹색 버튼, 다음 페이지의 지도를 보려면 녹색 화살표를 클릭하세요.


METAR-TAF: